Ana Sayfa
METAR-TAF:

METAR-TAF

Havaalanları :

University Park Airport

State College, Pensilvanya, Amerika Birleşik Devletleri

Enlem: 40-51N, Boylam: 077-51W, yükseklik: 378 m

Güncel hava durumu gözlemi

Rapor saat 15:53 UTC de 54 dakika önce yapıldı.
Rüzgar kuzey/kuzeybatıdan 12 kt ve 20 kt'a kadar ani rüzgarlar
Sıcaklık 9°C
Nem 40%
Basınç 1013 hPa
Görüş mesafesi: 16.1 km
5500 ft yükseklikte parçalı bulutlu

METAR: KUNV 021553Z 33012G20KT 10SM SCT055 09/M04 A2990

Saat: 12:47 (16:47 UTC)

Tahmin

Rapor saat 15:25 UTC de 1 saat ve 22 dakika önce yapıldı.
Ayın 02'si saat 15 UTC'den ayın 03'si saat 12 UTC'ye kadar geçerli Tahmin
Rüzgar kuzeybatıdan 14 kt ve 23 kt'a kadar ani rüzgarlar
Görüş mesafesi: 10 km
4000 ft yükseklikte az bulutlu
Ayın 03'si saat 0600 UTC'den
Rüzgar kuzeybatıdan 15 kt ve 25 kt'a kadar ani rüzgarlar
Görüş mesafesi: 10 km
25000 ft yükseklikte az bulutlu

TAF: KUNV 021525Z 0215/0312 32014G23KT P6SM FEW040 FM030600 31015G25KT P6SM FEW250

4.000'den fazla havaalanı için hava durumu gözlemleri ve tahminleri (METAR ve TAF raporları).

Kullanılabilir istasyonlar harita üzerinde sarı ve kırmızı noktalarla gösterilir.

İstasyonun adını görmek için fareyi noktanın üzerinde gezdirin.

Sonrasında hava gözlem ve tahminlerini görmek için tıklayın.

Haritayı değiştirmek için: yaklaştırmak için siyah artı işaretli yeşil düğmeye ve uzaklaştırmak için de eksi işaretli düğmeye hızla tıklayın; bitişik haritalar için yeşil okları kullanın.


METAR-TAF: